METAR Data
IDs: Format: Raw Decoded Include TAF

Data at: 1342 UTC 14 Dec 2019

KPBF 141328Z AUTO 29008KT 1/4SM FG VV002 06/05 A2985 RMK AO2 T00610050
KPBF 141253Z AUTO 20009KT 1/2SM FG VV002 06/05 A2979 RMK AO2 SLP087 T00610050
KPBF 141208Z AUTO 22005KT 1/2SM FG VV002 06/05 A2982 RMK AO2 T00560050
KPBF 141153Z AUTO 22006KT 1/4SM FG VV002 06/05 A2982 RMK AO2 SLP097 T00560050 10056 20028 55002
KPBF 141053Z AUTO 22004KT 1/4SM FG VV002 06/04 A2981 RMK AO2 SLP093 T00560044
KPBF 141036Z AUTO 19005KT 1/4SM FG VV002 04/04 A2981 RMK AO2 T00440039
KPBF 141021Z AUTO 21003KT 1/2SM FG VV002 04/03 A2981 RMK AO2 T00390028
KPBF 141011Z AUTO 19004KT 1 3/4SM BR OVC002 04/03 A2982 RMK AO2 T00390028
KPBF 141006Z AUTO 21003KT 6SM BR OVC004 04/03 A2983 RMK AO2 CIG 002V006 T00390028
KPBF 140953Z AUTO 00000KT 5SM BR BKN005 BKN034 03/03 A2983 RMK AO2 SLP102 T00330028
KPBF 140925Z AUTO 00000KT 6SM BR BKN007 03/02 A2983 RMK AO2 T00330017
KPBF 140917Z AUTO 00000KT 7SM SCT007 03/02 A2983 RMK AO2 T00330017
KPBF 140853Z AUTO 00000KT 7SM CLR 03/02 A2982 RMK AO2 SLP099 T00280017 56005
KPBF 140753Z AUTO 00000KT 9SM CLR 04/02 A2983 RMK AO2 SLP100 T00390022
KPBF 140653Z AUTO 22003KT 6SM BR CLR 04/03 A2982 RMK AO2 SLP099 T00390033
KPBF 140553Z AUTO 00000KT 8SM FEW037 05/04 A2984 RMK AO2 SLP104 T00500039 10100 20039 401110006 56006
KPBF 140453Z AUTO 29004KT 9SM CLR 05/04 A2984 RMK AO2 SLP105 T00500039
KPBF 140353Z AUTO 00000KT 10SM CLR 06/04 A2984 RMK AO2 SLP106 T00610044
KPBF 140253Z AUTO 00000KT 10SM CLR 07/05 A2986 RMK AO2 SLP110 T00720050 58001
KPBF 140153Z AUTO 00000KT 10SM OVC034 09/07 A2986 RMK AO2 SLP113 T00890067
KPBF 140053Z AUTO 00000KT 10SM BKN030 OVC040 10/06 A2986 RMK AO2 SLP112 T01000056
KPBF 132353Z AUTO 36004KT 10SM OVC038 09/07 A2986 RMK AO2 SLP111 T00940067 10111 20089 53005
KPBF 132253Z AUTO 00000KT 10SM OVC044 10/07 A2984 RMK AO2 SLP105 T01000067
KPBF 132153Z AUTO 07004KT 10SM OVC046 11/06 A2985 RMK AO2 SLP106 T01060061
KPBF 132053Z AUTO 11005KT 10SM BKN042 OVC055 11/06 A2984 RMK AO2 SLP105 T01060056 56034
KPBF 131953Z AUTO 10003KT 10SM OVC046 11/06 A2987 RMK AO2 SLP113 T01060056
KPBF 131853Z AUTO 00000KT 10SM OVC095 10/06 A2989 RMK AO2 SLP122 T01000056
KPBF 131807Z AUTO 07003KT 10SM SCT009 SCT050 OVC095 09/06 A2992 RMK AO2 T00940061
KPBF 131753Z AUTO 00000KT 10SM BKN009 BKN050 BKN090 09/06 A2994 RMK AO2 SLP140 T00890061 10094 20050 58020
KPBF 131644Z AUTO 12004KT 10SM OVC005 08/07 A2997 RMK AO2 T00830067
KPBF 131553Z AUTO 00000KT 8SM OVC002 07/06 A2999 RMK AO2 SLP155 T00720061
KPBF 131526Z AUTO 00000KT 3SM BR OVC003 07/06 A3000 RMK AO2 T00670061
KPBF 131516Z AUTO 00000KT 1SM BR VV003 07/06 A3001 RMK AO2 T00670061
KPBF 131453Z AUTO 00000KT 1/2SM FG VV003 07/06 A3000 RMK AO2 SLP160 T00670061 55004
KPBF 131438Z AUTO 00000KT 1/2SM FG VV003 07/06 A3000 RMK AO2 T00670056
KPBF 131424Z AUTO 00000KT 1/4SM FG VV002 06/06 A3000 RMK AO2 T00610056
KPBF 131353Z AUTO 17003KT 1/2SM FG VV003 06/06 A3000 RMK AO2 SLP159 T00610056
KPBF 131320Z AUTO 13004KT 1/4SM FG VV003 06/04 A3000 RMK AO2 T00560044
KPBF 131253Z AUTO 00000KT 1/2SM FG VV003 05/04 A3001 RMK AO2 SLP162 T00500044
KPBF 131153Z AUTO 00000KT 1/2SM FG VV003 05/04 A3002 RMK AO2 SLP164 T00500039 10050 20006 55014
KPBF 131129Z AUTO 00000KT 1/2SM FG VV003 05/04 A3002 RMK AO2 T00500044
KPBF 131100Z AUTO 00000KT 1/4SM FG VV002 04/04 A3002 RMK AO2 T00440039
KPBF 131053Z AUTO 00000KT 1/2SM FG VV002 04/04 A3001 RMK AO2 SLP164 T00440039
KPBF 131019Z AUTO 00000KT 3/4SM BR VV003 04/04 A3003 RMK AO2 T00440039
KPBF 131004Z AUTO 17003KT 1SM BR VV003 04/04 A3004 RMK AO2 T00440039
KPBF 130953Z AUTO 00000KT 3/4SM BR VV003 04/04 A3004 RMK AO2 SLP172 T00440039
KPBF 130902Z AUTO 14005KT 3/4SM BR VV002 04/03 A3005 RMK AO2 T00440033
KPBF 130853Z AUTO 14005KT 1SM BR VV002 04/03 A3006 RMK AO2 SLP178 T00440033 56021
KPBF 130830Z AUTO 13003KT 1 1/2SM BR OVC003 03/02 A3007 RMK AO2 T00330022
KPBF 130813Z AUTO 00000KT 10SM OVC003 03/01 A3008 RMK AO2 T00280011
KPBF 130804Z AUTO 00000KT 10SM BKN005 BKN100 02/01 A3008 RMK AO2 T00220011
KPBF 130753Z AUTO 12003KT 10SM SCT005 BKN100 01/00 A3008 RMK AO2 SLP185 T00110000
KPBF 130653Z AUTO 00000KT 10SM FEW095 01/00 A3009 RMK AO2 SLP190 T00110000
KPBF 130553Z AUTO 00000KT 10SM CLR 02/00 A3012 RMK AO2 SLP198 T00170000 10061 20017 401111022 56010
KPBF 130453Z AUTO 00000KT 7SM CLR 02/00 A3012 RMK AO2 SLP201 T00220000
KPBF 130353Z AUTO 00000KT 10SM CLR 02/01 A3013 RMK AO2 SLP202 T00170006
KPBF 130253Z AUTO 00000KT 10SM CLR 03/01 A3015 RMK AO2 SLP210 T00280011 58007
KPBF 130153Z AUTO 13003KT 10SM CLR 05/02 A3017 RMK AO2 SLP216 T00500017